Weather at Tauragės Aerodromas

Public forecast

Using degrees Celsius for public forecast. Weather courtesy of forecast.io.

Closest aviation weather report (METAR) to Tauragės Aerodromas

Closest report is Palanga International Airport, 57.1 nm (105.8 km) NW.

2023/09/27 14:50 (retrieved 21 minutes ago)

EYPA 271450Z 20004KT CAVOK 21/18 Q1023

Closest aviation forecast (TAF) to Tauragės Aerodromas

Closest forecast is Palanga International Airport, 57.1 nm (105.8 km) NW.

2023/09/27 12:03 Correction (retrieved 3 hours ago)

TAF COR TAF COR EYPA 271101Z 2712/2812 18010KT 9000 SCT015 TEMPO 2715/2722 SCT005 TEMPO 2722/2806 0600 FG VV002